EDT,Max TemperatureF,Mean TemperatureF,Min TemperatureF,Max Dew PointF,MeanDew PointF,Min DewpointF,Max Humidity, Mean Humidity, Min Humidity, Max Sea Level PressureIn, Mean Sea Level PressureIn, Min Sea Level PressureIn, Max VisibilityMiles, Mean VisibilityMiles, Min VisibilityMiles, Max Wind SpeedMPH, Mean Wind SpeedMPH, Max Gust SpeedMPH,PrecipitationIn, CloudCover, Events, WindDirDegrees
2011-10-1,64,60,55,64,62,55,100,98,92,29.79,29.68,29.61,10,4,0,16,5,22,0.05,8,Fog-Rain-Thunderstorm,36
2011-10-2,60,56,53,60,57,53,100,99,94,29.92,29.86,29.81,10,2,1,15,11,23,1.03,8,Rain,19
2011-10-3,66,60,54,58,55,50,100,88,57,30.08,30.04,29.92,10,8,2,12,4,,0.03,7,Rain,83
2011-10-4,58,56,55,57,55,53,100,95,88,30.05,29.95,29.89,10,7,1,13,7,18,2.12,8,Rain-Thunderstorm,7
2011-10-5,65,54,41,54,44,27,95,69,39,30.19,29.98,29.88,10,10,10,23,10,31,0.00,5,,312
2011-10-6,59,48,39,33,28,22,75,51,24,30.37,30.25,30.20,10,10,10,17,9,26,0.00,2,,296
2011-10-7,61,48,36,42,36,28,87,66,32,30.46,30.41,30.37,10,10,10,9,2,,0.00,3,,217
2011-10-8,79,62,46,56,49,42,88,65,42,30.40,30.34,30.30,10,10,10,10,6,,0.00,1,,252
2011-10-9,84,69,54,54,51,48,90,60,29,30.30,30.25,30.19,10,10,10,10,5,,0.00,2,,265
2011-10-10,82,70,57,58,54,47,81,64,43,30.19,30.13,30.06,10,10,10,16,8,22,0.00,1,,279
2011-10-11,63,54,46,50,47,44,96,78,52,30.27,30.23,30.17,10,10,10,9,3,,0.00,6,,65
2011-10-12,58,52,46,53,49,45,95,83,66,30.27,30.21,30.12,10,10,10,12,5,,0.00,8,,64
2011-10-13,60,58,55,60,57,52,100,96,82,30.11,29.91,29.79,10,3,1,16,10,23,0.67,8,Rain,40
2011-10-14,64,60,57,64,61,57,100,99,94,29.79,29.57,29.28,10,2,0,16,7,23,0.65,8,Fog-Rain,94
2011-10-15,65,58,53,61,45,37,100,63,42,29.61,29.48,29.27,10,10,10,21,14,36,0.00,3,,219
2011-10-16,64,58,52,43,38,34,67,51,33,29.73,29.68,29.62,10,10,10,16,10,24,0.00,6,,228
2011-10-17,63,57,51,50,40,31,88,58,30,29.69,29.63,29.54,10,10,8,17,8,25,0.01,4,Rain,234
2011-10-18,63,54,45,43,39,36,90,63,41,29.96,29.83,29.70,10,10,10,12,5,,0.00,4,,241
2011-10-19,57,51,45,54,50,43,100,91,72,30.02,29.89,29.68,10,6,2,24,7,34,0.92,8,Rain,38
2011-10-20,67,60,53,64,53,47,100,89,55,29.68,29.56,29.45,10,6,1,22,14,30,0.64,6,Rain,60
2011-10-21,62,54,47,46,42,41,82,64,48,29.93,29.80,29.67,10,10,10,14,8,18,0.00,3,,228
2011-10-22,59,53,46,44,42,38,81,68,51,30.05,29.99,29.94,10,10,10,10,6,,0.00,7,,262
2011-10-23,57,48,40,44,40,37,96,77,48,30.14,30.10,30.06,10,10,10,8,3,,0.00,3,,235
2011-10-24,58,48,37,47,42,36,97,79,56,30.15,30.05,29.91,10,10,7,10,3,,0.00,6,Fog-Rain,189
2011-10-25,58,52,44,47,39,30,95,66,41,29.94,29.88,29.82,10,10,8,22,9,30,0.00,3,Rain,276
2011-10-26,47,44,41,40,36,31,81,70,58,29.96,29.87,29.77,10,10,10,15,8,,0.00,7,Rain,263
2011-10-27,45,39,33,42,37,32,94,90,83,29.88,29.78,29.72,10,6,2,13,6,,0.87,8,Rain-Snow,4
2011-10-28,47,38,31,34,28,24,100,71,43,30.26,30.09,29.88,10,10,7,16,8,22,0.00,4,Rain,282
2011-10-29,42,36,29,32,29,26,95,80,57,30.27,30.12,29.85,10,6,1,21,7,28,0.54,7,Rain-Snow,10
2011-10-30,43,38,33,32,30,26,93,77,55,30.26,29.94,29.73,10,7,1,24,17,30,0.24,5,Rain-Snow,310
2011-10-31,51,40,29,34,29,25,85,69,41,30.41,30.37,30.28,10,10,10,8,4,,0.00,4,,231